Time;durP1;ratioP1;P1;durP2;ratioP2;P2;SDS_P1;SDS_P2;PMS_P1;PMS_P2;Temp;Humidity;BMP_temperature;BMP_pressure;BME280_temperature;BME280_humidity;BME280_pressure;Samples;Min_cycle;Max_cycle;Signal;HPM_P1;HPM_P2
2023/05/23 00:03:30;;;;;;;3.30;2.60;;;;;;;19.77;56.15;96430.75;10397332;28;20050;-58
2023/05/23 00:08:49;;;;;;;2.90;2.55;;;;;;;19.77;56.16;96430.75;10386261;28;20061;-58
2023/05/23 00:14:08;;;;;;;2.80;2.60;;;;;;;19.77;56.15;96427.25;10388663;28;20482;-58
2023/05/23 00:19:28;;;;;;;2.75;2.55;;;;;;;19.77;56.15;96419.16;10400103;28;20050;-58
2023/05/23 00:24:47;;;;;;;2.85;2.47;;;;;;;19.77;56.09;96414.53;10401312;28;20045;-58
2023/05/23 00:30:07;;;;;;;2.97;2.63;;;;;;;19.77;56.05;96411.03;10389478;28;20048;-58
2023/05/23 00:35:26;;;;;;;3.15;2.45;;;;;;;19.75;56.08;96417.56;10407736;28;20041;-58
2023/05/23 00:40:47;;;;;;;2.40;2.20;;;;;;;19.76;56.12;96412.97;10393698;28;20054;-58
2023/05/23 00:46:06;;;;;;;2.80;2.60;;;;;;;19.77;56.14;96440.78;10404876;28;20038;-58
2023/05/23 00:51:26;;;;;;;2.60;2.40;;;;;;;19.75;56.15;96443.81;10391171;28;20054;-58
2023/05/23 00:56:47;;;;;;;4.30;2.40;;;;;;;19.76;56.27;96437.28;10394899;28;20427;-58
2023/05/23 01:02:07;;;;;;;2.67;2.40;;;;;;;19.75;56.16;96436.47;10397341;28;20054;-58
2023/05/23 01:07:26;;;;;;;3.22;2.40;;;;;;;19.76;56.22;96437.28;10395033;28;20042;-58
2023/05/23 01:12:59;;;;;;;2.80;2.58;;;;;;;19.74;56.12;96432.22;10409851;28;20493;-58
2023/05/23 01:18:43;;;;;;;2.47;2.28;;;;;;;19.75;56.18;96422.19;10422679;28;20045;-58
2023/05/23 01:24:25;;;;;;;2.95;2.40;;;;;;;19.74;56.15;96418.69;10353939;28;20057;-58
2023/05/23 01:29:45;;;;;;;2.45;2.25;;;;;;;19.74;56.13;96423.31;10397925;28;20045;-58
2023/05/23 01:35:06;;;;;;;2.35;2.15;;;;;;;19.74;56.19;96420.63;10391545;28;20042;-58
2023/05/23 01:40:26;;;;;;;2.50;2.30;;;;;;;19.74;56.15;96409.81;10406585;28;20037;-58
2023/05/23 01:45:45;;;;;;;2.30;2.10;;;;;;;19.74;56.15;96401.69;10397385;28;20038;-58
2023/05/23 01:51:05;;;;;;;2.40;2.20;;;;;;;19.75;56.12;96395.16;10401285;28;20448;-58
2023/05/23 01:56:27;;;;;;;2.80;2.50;;;;;;;19.74;56.21;96386.28;10391079;28;20046;-58
2023/05/23 02:01:47;;;;;;;2.70;2.50;;;;;;;19.73;56.19;96381.19;10402095;28;20041;-57
2023/05/23 02:07:07;;;;;;;2.45;2.25;;;;;;;19.73;56.16;96392.00;10389543;28;20065;-58
2023/05/23 02:12:26;;;;;;;2.40;2.20;;;;;;;19.73;56.22;96403.59;10390272;28;20042;-58
2023/05/23 02:17:47;;;;;;;2.50;2.30;;;;;;;19.73;56.24;96421.72;10392974;28;20046;-58
2023/05/23 02:23:06;;;;;;;2.40;2.20;;;;;;;19.73;56.19;96433.31;10411882;28;20052;-58
2023/05/23 02:28:26;;;;;;;2.72;2.10;;;;;;;19.72;56.21;96439.09;10403904;28;20045;-58
2023/05/23 02:33:45;;;;;;;2.50;2.30;;;;;;;19.73;56.31;96429.84;10403874;28;20045;-58
2023/05/23 02:39:05;;;;;;;2.40;2.20;;;;;;;19.72;56.35;96439.88;10408377;28;20041;-57
2023/05/23 02:44:25;;;;;;;2.72;2.40;;;;;;;19.72;56.23;96450.69;10402736;28;20048;-58
2023/05/23 02:49:45;;;;;;;2.03;1.92;;;;;;;19.72;56.21;96447.19;10405746;28;20069;-58
2023/05/23 02:55:05;;;;;;;2.17;1.98;;;;;;;19.72;56.21;96442.56;10390308;28;20048;-58
2023/05/23 03:00:31;;;;;;;2.40;2.20;;;;;;;19.72;56.13;96444.50;10390533;28;20515;-58
2023/05/23 03:05:52;;;;;;;2.22;2.03;;;;;;;19.71;56.32;96443.69;10393268;28;20042;-57
2023/05/23 03:11:11;;;;;;;2.95;2.00;;;;;;;19.71;56.17;96438.28;10389777;28;20071;-58
2023/05/23 03:16:31;;;;;;;2.40;2.20;;;;;;;19.71;56.15;96437.47;10393211;28;20474;-57
2023/05/23 03:21:51;;;;;;;2.42;2.22;;;;;;;19.71;56.14;96437.47;10404266;28;20038;-57
2023/05/23 03:27:11;;;;;;;2.00;1.80;;;;;;;19.70;56.21;96431.28;10389653;28;20042;-58
2023/05/23 03:32:30;;;;;;;2.22;2.03;;;;;;;19.71;56.18;96429.34;10387717;28;20042;-58
2023/05/23 03:37:50;;;;;;;1.98;1.88;;;;;;;19.70;56.14;96412.34;10403021;28;20057;-58
2023/05/23 03:43:09;;;;;;;2.42;2.22;;;;;;;19.71;56.29;96413.13;10398099;28;20045;-58
2023/05/23 03:48:32;;;;;;;2.30;2.10;;;;;;;19.70;56.27;96398.06;10385010;28;20049;-57
2023/05/23 03:53:51;;;;;;;1.98;1.88;;;;;;;19.70;56.32;96406.16;10391414;28;20045;-58
2023/05/23 03:59:11;;;;;;;2.33;2.05;;;;;;;19.70;56.24;96414.28;10385298;28;20050;-58
2023/05/23 04:04:31;;;;;;;2.15;2.03;;;;;;;19.70;56.19;96403.47;10384412;28;20053;-58
2023/05/23 04:09:50;;;;;;;2.30;2.10;;;;;;;19.69;56.24;96402.66;10399906;28;20037;-58
2023/05/23 04:15:11;;;;;;;2.53;2.33;;;;;;;19.71;56.55;96402.34;10396301;28;20045;-58
2023/05/23 04:20:40;;;;;;;2.28;2.08;;;;;;;19.71;56.94;96410.44;10384694;28;20438;-58
2023/05/23 04:26:00;;;;;;;2.28;2.08;;;;;;;19.71;57.16;96413.13;10402443;28;20050;-58
2023/05/23 04:31:27;;;;;;;2.40;2.20;;;;;;;19.70;57.20;96415.06;10384311;28;20053;-58
2023/05/23 04:36:48;;;;;;;2.08;1.92;;;;;;;19.70;57.20;96408.88;10399360;28;20042;-58
2023/05/23 04:42:08;;;;;;;2.30;2.10;;;;;;;19.72;57.26;96406.66;10398566;28;20045;-57
2023/05/23 04:47:43;;;;;;;2.30;2.10;;;;;;;19.72;57.04;96417.47;10388071;28;20409;-58
2023/05/23 04:53:09;;;;;;;2.17;1.83;;;;;;;19.72;57.23;96420.16;10339223;28;20047;-58
2023/05/23 04:58:30;;;;;;;11.23;2.35;;;;;;;19.73;57.13;96408.22;10330441;28;20050;-57
2023/05/23 05:03:54;;;;;;;1.90;1.80;;;;;;;19.71;57.06;96413.94;10333830;28;20096;-57
2023/05/23 05:09:14;;;;;;;8.75;3.88;;;;;;;19.71;56.93;96413.94;10333704;28;20041;-57
2023/05/23 05:14:36;;;;;;;14.88;5.10;;;;;;;19.69;56.19;96399.19;10333485;28;20045;-58
2023/05/23 05:19:56;;;;;;;4.90;3.22;;;;;;;19.67;56.38;96386.00;10336818;28;20058;-57
2023/05/23 05:25:17;;;;;;;5.88;3.70;;;;;;;19.69;56.65;96385.66;10331516;28;20070;-57
2023/05/23 05:30:38;;;;;;;8.48;4.07;;;;;;;19.70;56.81;96387.25;10356979;28;20514;-57
2023/05/23 05:35:58;;;;;;;8.43;4.20;;;;;;;19.69;56.97;96385.66;10336395;28;20038;-57
2023/05/23 05:41:18;;;;;;;8.40;4.28;;;;;;;19.69;56.97;96367.53;10350430;28;20057;-58
2023/05/23 05:46:41;;;;;;;10.35;4.45;;;;;;;19.70;56.96;96376.44;10340912;28;20042;-57
2023/05/23 05:52:01;;;;;;;11.65;4.50;;;;;;;19.70;57.04;96390.75;10400565;28;20560;-57
2023/05/23 05:57:21;;;;;;;8.10;4.43;;;;;;;19.70;57.08;96396.16;10389812;28;20046;-57
2023/05/23 06:02:46;;;;;;;9.20;4.72;;;;;;;19.71;57.18;96394.22;10401903;28;20046;-57
2023/05/23 06:08:06;;;;;;;11.43;4.50;;;;;;;19.70;57.19;96392.66;10411743;28;20496;-57
2023/05/23 06:13:25;;;;;;;10.50;4.45;;;;;;;19.70;57.27;96384.56;10401232;28;20049;-57
2023/05/23 06:18:46;;;;;;;11.10;4.60;;;;;;;19.72;57.43;96376.94;10401474;28;20414;-57
2023/05/23 06:24:06;;;;;;;8.48;4.07;;;;;;;19.72;57.43;96379.63;10394384;28;20046;-57
2023/05/23 06:29:26;;;;;;;8.77;4.38;;;;;;;19.71;57.45;96396.94;10394168;28;20037;-58
2023/05/23 06:34:45;;;;;;;9.15;4.65;;;;;;;19.71;57.49;96403.13;10397658;28;20092;-58
2023/05/23 06:40:05;;;;;;;9.82;4.30;;;;;;;19.71;57.50;96427.47;10397877;28;20034;-58
2023/05/23 06:45:25;;;;;;;10.05;4.43;;;;;;;19.71;57.48;96437.47;10397944;28;20387;-57
2023/05/23 06:50:45;;;;;;;7.50;3.85;;;;;;;19.72;57.59;96444.50;10382052;28;20057;-57
2023/05/23 06:56:05;;;;;;;7.78;4.07;;;;;;;19.71;57.56;96446.38;10399029;28;20077;-57
2023/05/23 07:01:31;;;;;;;8.75;4.25;;;;;;;19.70;57.52;96446.72;10388045;28;20054;-57
2023/05/23 07:06:51;;;;;;;7.90;4.10;;;;;;;19.70;57.60;96447.50;10387254;28;20038;-57
2023/05/23 07:12:11;;;;;;;9.20;4.10;;;;;;;19.70;57.52;96461.00;10397903;28;20045;-57
2023/05/23 07:17:35;;;;;;;7.38;4.00;;;;;;;19.70;57.66;96450.19;10397980;28;20045;-57
2023/05/23 07:22:56;;;;;;;8.68;4.20;;;;;;;19.71;57.62;96450.97;10394807;28;20100;-57
2023/05/23 07:28:16;;;;;;;10.00;4.20;;;;;;;19.71;57.62;96453.69;10386441;28;20046;-57
2023/05/23 07:33:36;;;;;;;5.38;3.75;;;;;;;19.72;57.63;96452.59;10400130;28;20092;-57
2023/05/23 07:38:57;;;;;;;8.10;4.10;;;;;;;19.71;57.67;96459.91;10397095;28;20056;-57
2023/05/23 07:44:17;;;;;;;6.93;3.58;;;;;;;19.71;57.68;96445.56;10391363;28;20096;-57
2023/05/23 07:49:37;;;;;;;6.38;3.88;;;;;;;19.71;57.62;96453.69;10382024;28;20104;-57
2023/05/23 07:54:58;;;;;;;6.55;3.70;;;;;;;19.70;57.66;96452.91;10385101;28;20096;-57
2023/05/23 08:00:20;;;;;;;5.88;3.50;;;;;;;19.71;57.75;96461.78;10404491;28;20053;-57
2023/05/23 08:05:44;;;;;;;6.43;3.47;;;;;;;19.73;57.81;96473.09;10409872;28;20414;-58
2023/05/23 08:11:04;;;;;;;5.00;3.28;;;;;;;19.72;57.80;96460.72;10405283;28;20053;-57
2023/05/23 08:16:34;;;;;;;8.77;3.70;;;;;;;19.73;57.85;96473.09;10392027;28;20037;-57
2023/05/23 08:21:53;;;;;;;6.32;3.67;;;;;;;19.73;57.87;96487.38;10410463;28;20041;-58
2023/05/23 08:27:14;;;;;;;5.15;3.70;;;;;;;19.74;57.73;96482.78;10388967;28;20555;-58
2023/05/23 08:32:34;;;;;;;5.78;3.65;;;;;;;19.73;57.86;96490.09;10396000;28;20046;-58
2023/05/23 08:37:56;;;;;;;5.22;3.60;;;;;;;19.73;57.91;96503.59;10387353;28;20053;-57
2023/05/23 08:43:18;;;;;;;5.18;3.67;;;;;;;19.73;57.98;96505.50;10394605;28;20069;-57
2023/05/23 08:48:38;;;;;;;5.22;3.72;;;;;;;19.73;57.92;96505.50;10425609;28;20057;-57
2023/05/23 08:53:58;;;;;;;8.68;3.70;;;;;;;19.73;57.86;96505.50;10407927;28;20049;-58
2023/05/23 08:59:21;;;;;;;6.75;3.78;;;;;;;19.74;57.84;96512.50;10405798;28;20490;-57
2023/05/23 09:04:41;;;;;;;5.60;3.55;;;;;;;19.74;57.96;96523.31;10391185;28;20176;-57
2023/05/23 09:10:09;;;;;;;5.07;3.10;;;;;;;19.74;57.96;96520.63;10403851;28;20056;-57
2023/05/23 09:15:30;;;;;;;6.18;3.40;;;;;;;19.74;57.93;96520.63;10391966;28;20042;-57
2023/05/23 09:20:50;;;;;;;5.68;3.30;;;;;;;19.74;57.92;96526.03;10410946;28;20033;-57
2023/05/23 09:26:12;;;;;;;5.20;3.30;;;;;;;19.73;57.98;96532.53;10392702;28;20434;-57
2023/05/23 09:31:32;;;;;;;6.50;3.58;;;;;;;19.75;58.01;96530.28;10391923;28;20041;-57
2023/05/23 09:36:54;;;;;;;4.72;3.17;;;;;;;19.76;57.84;96542.69;10390865;28;20042;-57
2023/05/23 09:42:21;;;;;;;5.32;3.53;;;;;;;19.76;57.94;96548.09;10404691;28;20061;-58
2023/05/23 09:47:51;;;;;;;6.18;3.40;;;;;;;19.75;58.16;96546.50;10381465;28;20123;-57
2023/05/23 09:53:11;;;;;;;4.55;2.97;;;;;;;19.75;58.12;96568.13;10384027;28;20380;-57
2023/05/23 09:58:32;;;;;;;4.53;3.10;;;;;;;19.75;58.12;96558.09;10394242;28;20042;-58
2023/05/23 10:03:56;;;;;;;5.70;3.13;;;;;;;19.75;58.21;96560.03;10397404;28;20042;-58
2023/05/23 10:09:17;;;;;;;5.75;2.97;;;;;;;19.74;58.07;96559.25;10396328;28;20092;-57
2023/05/23 10:14:40;;;;;;;4.25;3.17;;;;;;;19.75;58.14;96568.13;10380272;28;20071;-57
2023/05/23 10:20:07;;;;;;;4.38;3.20;;;;;;;19.74;57.96;96561.16;10393310;28;20092;-57
2023/05/23 10:25:27;;;;;;;5.13;3.40;;;;;;;19.74;58.00;96569.28;10395395;28;20053;-57
2023/05/23 10:30:47;;;;;;;4.13;3.20;;;;;;;19.74;57.93;96563.88;10389668;28;20044;-57
2023/05/23 10:36:34;;;;;;;3.75;2.90;;;;;;;19.73;57.98;96549.53;10400822;28;20100;-57
2023/05/23 10:42:10;;;;;;;4.43;2.75;;;;;;;19.73;57.87;96543.34;10396169;28;20045;-58
2023/05/23 10:47:30;;;;;;;4.72;3.10;;;;;;;19.74;57.86;96544.94;10391260;28;20042;-57
2023/05/23 10:52:52;;;;;;;4.32;3.22;;;;;;;19.74;57.93;96553.84;10379581;28;20457;-57
2023/05/23 10:58:19;;;;;;;4.85;2.90;;;;;;;19.74;57.92;96544.94;10403053;28;20514;-58
2023/05/23 11:03:45;;;;;;;5.30;3.50;;;;;;;19.75;58.03;96551.91;10389305;28;20050;-57
2023/05/23 11:09:06;;;;;;;3.15;2.72;;;;;;;19.75;58.02;96551.91;10402146;28;20437;-57
2023/05/23 11:14:36;;;;;;;4.50;3.08;;;;;;;19.74;58.10;96539.53;10387721;28;20505;-57
2023/05/23 11:20:04;;;;;;;3.88;2.83;;;;;;;19.75;58.04;96549.22;10405711;28;20053;-57
2023/05/23 11:25:41;;;;;;;3.45;2.72;;;;;;;19.77;58.14;96548.88;10392963;28;20050;-57
2023/05/23 11:31:01;;;;;;;4.95;2.90;;;;;;;19.76;58.22;96556.22;10398410;28;20414;-57
2023/05/23 11:36:23;;;;;;;2.88;2.50;;;;;;;19.76;58.23;96556.22;10376078;28;20054;-57
2023/05/23 11:41:42;;;;;;;4.07;3.00;;;;;;;19.76;58.26;96558.91;10386788;28;20053;-57
2023/05/23 11:47:03;;;;;;;3.33;2.60;;;;;;;19.75;58.16;96560.03;10392813;28;20042;-58
2023/05/23 11:52:23;;;;;;;4.55;2.90;;;;;;;19.77;58.16;96562.41;10395040;28;20120;-57
2023/05/23 11:57:42;;;;;;;5.78;3.17;;;;;;;19.76;58.12;96572.44;10400790;28;20052;-57
2023/05/23 12:03:06;;;;;;;2.70;2.50;;;;;;;19.74;58.02;96569.28;10395235;28;20037;-57
2023/05/23 12:08:25;;;;;;;3.63;2.80;;;;;;;19.75;58.03;96565.44;10389107;28;20402;-57
2023/05/23 12:13:45;;;;;;;3.85;2.60;;;;;;;19.75;58.07;96563.50;10397094;28;20037;-57
2023/05/23 12:19:05;;;;;;;3.65;2.45;;;;;;;19.75;58.01;96555.41;10405316;28;20037;-57
2023/05/23 12:24:24;;;;;;;3.17;2.47;;;;;;;19.75;57.96;96550.00;10390798;28;20052;-57
2023/05/23 12:29:50;;;;;;;3.13;2.70;;;;;;;19.75;58.06;96558.09;10385639;28;20038;-57
2023/05/23 12:35:12;;;;;;;2.90;2.60;;;;;;;19.76;58.01;96558.91;10388383;28;20045;-57
2023/05/23 12:40:32;;;;;;;3.60;2.53;;;;;;;19.75;57.96;96551.91;10402759;28;20037;-57
2023/05/23 12:45:51;;;;;;;3.97;3.00;;;;;;;19.76;58.10;96558.91;10371566;28;20057;-57
2023/05/23 12:51:10;;;;;;;3.13;2.78;;;;;;;19.75;58.17;96563.50;10377523;28;20057;-57
2023/05/23 12:56:30;;;;;;;3.35;2.60;;;;;;;19.76;58.20;96561.63;10388958;28;20052;-57
2023/05/23 13:01:50;;;;;;;3.65;2.55;;;;;;;19.75;58.19;96555.41;10388051;28;20553;-58
2023/05/23 13:07:10;;;;;;;2.63;2.40;;;;;;;19.77;58.27;96552.38;10387917;28;20038;-57
2023/05/23 13:12:29;;;;;;;2.92;2.60;;;;;;;19.77;58.28;96554.28;10382517;28;20053;-57
2023/05/23 13:17:49;;;;;;;2.97;2.30;;;;;;;19.77;58.34;96548.88;10387867;28;20041;-57
2023/05/23 13:23:08;;;;;;;2.50;2.30;;;;;;;19.78;58.29;96555.88;10393138;28;20054;-57
2023/05/23 13:28:27;;;;;;;3.38;2.55;;;;;;;19.77;58.26;96555.06;10395879;28;20506;-57
2023/05/23 13:33:47;;;;;;;3.22;2.58;;;;;;;19.76;58.27;96545.41;10390449;28;20038;-57
2023/05/23 13:39:07;;;;;;;2.83;2.50;;;;;;;19.76;58.31;96542.69;10409864;28;20053;-58
2023/05/23 13:44:27;;;;;;;3.95;2.60;;;;;;;19.77;58.24;96546.19;10391715;28;20053;-58
2023/05/23 13:49:46;;;;;;;2.70;2.50;;;;;;;19.77;58.20;96543.47;10420516;28;20057;-57
2023/05/23 13:55:06;;;;;;;2.58;2.38;;;;;;;19.78;58.25;96545.06;10396829;28;20041;-57
2023/05/23 14:00:25;;;;;;;3.15;2.45;;;;;;;19.78;58.37;96556.69;10401960;28;20108;-57
2023/05/23 14:05:45;;;;;;;3.08;2.40;;;;;;;19.79;58.52;96543.94;10393730;28;20050;-58
2023/05/23 14:11:04;;;;;;;2.53;2.22;;;;;;;19.79;58.62;96535.84;10390624;28;20449;-57
2023/05/23 14:16:24;;;;;;;3.92;2.28;;;;;;;19.79;58.48;96542.03;10417950;28;20037;-57
2023/05/23 14:21:43;;;;;;;3.55;2.67;;;;;;;19.78;58.54;96540.47;10395291;28;20053;-57
2023/05/23 14:27:03;;;;;;;2.90;2.40;;;;;;;19.79;58.57;96542.03;10430973;28;20089;-57
2023/05/23 14:32:23;;;;;;;3.63;2.45;;;;;;;19.79;58.48;96542.03;10382525;28;20053;-57
2023/05/23 14:37:44;;;;;;;2.70;2.50;;;;;;;19.78;58.44;96536.94;10395458;28;20038;-57
2023/05/23 14:43:03;;;;;;;2.63;2.20;;;;;;;19.79;58.45;96538.53;10400515;28;20044;-58
2023/05/23 14:48:23;;;;;;;2.80;2.55;;;;;;;19.78;58.48;96550.47;10388588;28;20403;-57
2023/05/23 14:53:42;;;;;;;2.72;2.20;;;;;;;19.79;58.40;96554.75;10394348;28;20041;-57
2023/05/23 14:59:03;;;;;;;2.97;2.40;;;;;;;19.79;58.57;96541.25;10419173;28;20041;-57
2023/05/23 15:04:23;;;;;;;2.97;2.35;;;;;;;19.79;58.51;96549.34;10388523;28;20521;-57
2023/05/23 15:09:43;;;;;;;2.67;2.47;;;;;;;19.78;58.49;96551.28;10406746;28;20494;-57
2023/05/23 15:15:03;;;;;;;3.53;2.20;;;;;;;19.79;58.51;96577.16;10407467;28;20038;-57
2023/05/23 15:20:23;;;;;;;2.53;2.30;;;;;;;19.79;58.50;96569.06;10387818;28;20037;-57
2023/05/23 15:25:42;;;;;;;4.07;3.65;;;;;;;19.78;57.98;96581.00;10403608;28;20049;-47
2023/05/23 15:31:02;;;;;;;5.35;4.80;;;;;;;19.78;57.19;96570.19;10390255;28;20061;-46
2023/05/23 15:36:21;;;;;;;8.38;4.68;;;;;;;19.78;56.34;96578.31;10414382;28;20041;-48
2023/05/23 15:41:41;;;;;;;5.03;3.47;;;;;;;19.76;55.54;96575.13;10402690;28;20052;-47
2023/05/23 15:47:01;;;;;;;3.90;3.38;;;;;;;19.76;54.67;96585.94;10389734;28;20430;-48
2023/05/23 15:52:20;;;;;;;3.20;2.90;;;;;;;19.76;54.42;96585.94;10378351;28;20057;-47
2023/05/23 15:57:40;;;;;;;2.83;2.50;;;;;;;19.76;53.47;96596.75;10386502;28;20037;-47
2023/05/23 16:02:59;;;;;;;3.90;2.50;;;;;;;19.75;53.20;96595.16;10385261;28;20042;-47
2023/05/23 16:08:19;;;;;;;2.92;2.72;;;;;;;19.77;53.42;96598.31;10397198;28;20042;-48
2023/05/23 16:13:39;;;;;;;2.47;2.20;;;;;;;19.77;52.77;96613.75;10372594;28;20050;-49
2023/05/23 16:18:59;;;;;;;3.47;2.25;;;;;;;19.77;52.71;96617.25;10372029;28;20061;-49
2023/05/23 16:24:18;;;;;;;2.78;2.28;;;;;;;19.78;52.55;96615.31;10410896;28;20119;-48
2023/05/23 16:29:37;;;;;;;3.60;2.10;;;;;;;19.75;52.36;96622.97;10395249;28;20053;-48
2023/05/23 16:34:57;;;;;;;2.00;1.80;;;;;;;19.74;51.88;96620.63;10405296;28;20141;-51
2023/05/23 16:40:16;;;;;;;2.05;1.85;;;;;;;19.72;51.74;96623.66;10387410;28;20045;-47
2023/05/23 16:45:35;;;;;;;2.35;2.00;;;;;;;19.71;52.00;96611.25;10386097;28;20042;-48
2023/05/23 16:50:55;;;;;;;3.17;2.00;;;;;;;19.71;51.89;96621.25;10381038;28;20058;-50
2023/05/23 16:56:15;;;;;;;3.03;1.85;;;;;;;19.71;51.92;96623.94;10387915;28;20042;-48
2023/05/23 17:01:35;;;;;;;2.20;2.00;;;;;;;19.70;51.89;96620.47;10386168;28;20038;-48
2023/05/23 17:06:55;;;;;;;3.00;1.80;;;;;;;19.69;52.00;96618.06;10383402;28;20055;-48
2023/05/23 17:12:14;;;;;;;5.55;2.10;;;;;;;19.68;52.81;96622.69;10390900;28;20038;-55
2023/05/23 17:17:34;;;;;;;4.93;1.90;;;;;;;19.68;53.30;96622.69;10398739;28;20048;-61
2023/05/23 17:22:54;;;;;;;1.98;1.88;;;;;;;19.70;53.77;96639.38;10398056;28;20057;-60
2023/05/23 17:28:14;;;;;;;2.10;1.90;;;;;;;19.69;54.00;96651.28;10394898;28;20065;-60
2023/05/23 17:33:33;;;;;;;1.80;1.70;;;;;;;19.68;54.22;96654.31;10391781;28;20050;-62
2023/05/23 17:38:53;;;;;;;2.30;2.10;;;;;;;19.67;54.39;96663.56;10391875;28;20041;-47
2023/05/23 17:44:13;;;;;;;2.58;1.70;;;;;;;19.67;54.37;96668.97;10397514;28;20057;-47
2023/05/23 17:49:32;;;;;;;3.22;1.65;;;;;;;19.67;54.50;96675.16;10393998;28;20065;-47
2023/05/23 17:54:52;;;;;;;3.60;1.55;;;;;;;19.67;54.54;96691.38;10396746;28;20445;-46
2023/05/23 18:00:11;;;;;;;2.20;1.20;;;;;;;19.68;53.83;96702.97;10396847;28;20034;-47
2023/05/23 18:05:34;;;;;;;1.55;1.35;;;;;;;19.67;54.20;96693.28;10400498;28;20404;-47
2023/05/23 18:10:54;;;;;;;3.53;1.50;;;;;;;19.66;54.47;96700.59;10401763;28;20037;-46
2023/05/23 18:16:13;;;;;;;3.38;1.50;;;;;;;19.67;54.84;96701.41;10401827;28;20568;-47
2023/05/23 18:21:33;;;;;;;2.58;1.80;;;;;;;19.66;54.85;96706.00;10406175;28;20524;-48
2023/05/23 18:26:53;;;;;;;2.63;1.60;;;;;;;19.67;55.04;96712.19;10392789;28;20045;-48
2023/05/23 18:32:13;;;;;;;3.33;1.58;;;;;;;19.66;55.21;96713.31;10392535;28;20049;-47
2023/05/23 18:37:33;;;;;;;3.00;1.60;;;;;;;19.67;55.42;96739.22;10390580;28;20049;-47
2023/05/23 18:42:52;;;;;;;2.92;1.70;;;;;;;19.66;55.41;96743.84;10389413;28;20104;-47
2023/05/23 18:48:13;;;;;;;3.33;1.63;;;;;;;19.67;55.49;96753.53;10403170;28;20533;-47
2023/05/23 18:53:32;;;;;;;7.85;1.73;;;;;;;19.66;55.97;96756.56;10388657;28;20070;-46
2023/05/23 18:58:52;;;;;;;3.97;1.73;;;;;;;19.68;56.27;96773.22;10407820;28;20124;-49
2023/05/23 19:04:12;;;;;;;4.07;1.88;;;;;;;19.67;56.39;96777.06;10391629;28;20041;-49
2023/05/23 19:09:32;;;;;;;4.75;1.75;;;;;;;19.67;56.48;96788.66;10374975;28;20057;-47
2023/05/23 19:14:52;;;;;;;2.95;1.75;;;;;;;19.65;56.62;96796.31;10384575;28;20096;-47
2023/05/23 19:20:17;;;;;;;4.50;2.00;;;;;;;19.66;56.67;96791.69;10396656;28;20057;-48
2023/05/23 19:25:36;;;;;;;3.47;1.70;;;;;;;19.64;56.72;96800.13;10403171;28;20409;-49
2023/05/23 19:30:56;;;;;;;3.85;1.40;;;;;;;19.64;56.80;96805.53;10414436;28;20038;-47
2023/05/23 19:36:15;;;;;;;5.65;1.77;;;;;;;19.66;57.22;96816.00;10406481;28;20065;-47
2023/05/23 19:41:34;;;;;;;4.30;1.95;;;;;;;19.64;57.18;96813.66;10388243;28;20052;-47
2023/05/23 19:46:54;;;;;;;5.05;1.80;;;;;;;19.65;57.17;96827.94;10386674;28;20061;-46
2023/05/23 19:52:13;;;;;;;2.58;1.85;;;;;;;19.65;57.39;96827.94;10375953;28;20054;-47
2023/05/23 19:57:33;;;;;;;8.00;1.75;;;;;;;19.64;57.37;96831.75;10387498;28;20141;-48
2023/05/23 20:02:52;;;;;;;5.22;1.85;;;;;;;19.63;57.42;96830.97;10399030;28;20564;-48
2023/05/23 20:08:12;;;;;;;2.25;1.77;;;;;;;19.64;57.50;96837.16;10379713;28;20087;-49
2023/05/23 20:13:31;;;;;;;3.17;1.48;;;;;;;19.63;57.49;96849.88;10406705;28;20042;-45
2023/05/23 20:18:51;;;;;;;2.63;1.60;;;;;;;19.62;57.48;96848.31;10391197;28;20091;-46
2023/05/23 20:24:11;;;;;;;4.13;1.60;;;;;;;19.63;57.77;96858.00;10391716;28;20100;-48
2023/05/23 20:29:33;;;;;;;2.03;1.40;;;;;;;19.64;57.83;96865.00;10385879;28;20042;-46
2023/05/23 20:34:53;;;;;;;1.88;1.38;;;;;;;19.66;57.91;96875.47;10385491;28;20046;-46
2023/05/23 20:40:12;;;;;;;1.48;1.38;;;;;;;19.66;58.01;96878.16;10399920;28;20110;-47
2023/05/23 20:45:32;;;;;;;2.70;1.60;;;;;;;19.65;58.21;96871.19;10393098;28;20410;-47
2023/05/23 20:50:52;;;;;;;2.03;1.48;;;;;;;19.65;58.34;96882.78;10407178;28;20099;-47
2023/05/23 20:56:11;;;;;;;2.60;1.40;;;;;;;19.65;58.51;96882.78;10398242;28;20506;-46
2023/05/23 21:01:31;;;;;;;1.70;1.40;;;;;;;19.65;58.61;96888.19;10394271;28;20075;-48
2023/05/23 21:06:51;;;;;;;2.22;1.30;;;;;;;19.65;58.84;96877.38;10409222;28;20034;-48
2023/05/23 21:12:10;;;;;;;2.90;1.38;;;;;;;19.66;58.99;96887.09;10400502;28;20033;-47
2023/05/23 21:17:30;;;;;;;2.20;1.35;;;;;;;19.66;58.88;96894.38;10385150;28;20057;-47
2023/05/23 21:22:49;;;;;;;2.50;1.40;;;;;;;19.65;58.98;96893.59;10396636;28;20054;-46
2023/05/23 21:28:09;;;;;;;1.15;1.05;;;;;;;19.66;58.88;96897.09;10406329;28;20056;-47
2023/05/23 21:33:28;;;;;;;2.40;1.40;;;;;;;19.65;59.04;96899.00;10392953;28;20061;-46
2023/05/23 21:38:48;;;;;;;1.73;1.20;;;;;;;19.66;59.06;96902.50;10392004;28;20486;-47
2023/05/23 21:44:07;;;;;;;1.30;1.20;;;;;;;19.65;59.19;96909.03;10391848;28;20068;-47
2023/05/23 21:49:31;;;;;;;1.65;1.42;;;;;;;19.65;59.25;96914.44;10403474;28;20123;-47
2023/05/23 21:54:53;;;;;;;1.60;1.45;;;;;;;19.65;59.21;96917.13;10381396;28;20068;-46
2023/05/23 22:00:14;;;;;;;1.73;1.35;;;;;;;19.65;59.34;96925.25;10396924;28;20049;-46
2023/05/23 22:05:33;;;;;;;2.15;1.33;;;;;;;19.65;59.38;96923.31;10404967;28;20100;-46
2023/05/23 22:10:52;;;;;;;1.30;1.20;;;;;;;19.65;59.45;96933.34;10390692;28;20050;-47
2023/05/23 22:16:12;;;;;;;1.23;1.00;;;;;;;19.64;59.48;96937.97;10393451;28;20048;-47
2023/05/23 22:21:31;;;;;;;1.50;1.25;;;;;;;19.64;59.49;96929.03;10404907;28;20037;-46
2023/05/23 22:26:50;;;;;;;1.77;1.30;;;;;;;19.64;59.54;96924.47;10430407;28;20042;-46
2023/05/23 22:32:10;;;;;;;1.17;1.08;;;;;;;19.65;59.58;96927.94;10392850;28;20046;-47
2023/05/23 22:37:30;;;;;;;1.50;1.20;;;;;;;19.65;59.54;96930.66;10396219;28;20046;-47
2023/05/23 22:42:49;;;;;;;1.60;1.30;;;;;;;19.64;59.59;96927.16;10402783;28;20103;-47
2023/05/23 22:48:10;;;;;;;1.35;1.15;;;;;;;19.65;59.69;96919.84;10392317;28;20042;-46
2023/05/23 22:53:29;;;;;;;1.42;1.25;;;;;;;19.64;59.64;96926.34;10388943;28;20038;-48
2023/05/23 22:58:49;;;;;;;1.92;1.20;;;;;;;19.64;59.66;96923.63;10408328;28;20046;-46
2023/05/23 23:04:09;;;;;;;1.70;1.15;;;;;;;19.64;59.65;96924.47;10399447;28;20046;-48
2023/05/23 23:09:28;;;;;;;1.38;1.10;;;;;;;19.64;59.67;96924.47;10421453;28;20041;-46
2023/05/23 23:14:48;;;;;;;1.10;1.00;;;;;;;19.64;59.67;96929.03;10397348;28;20448;-47
2023/05/23 23:20:08;;;;;;;1.13;1.02;;;;;;;19.65;59.77;96930.66;10390748;28;20100;-46
2023/05/23 23:25:29;;;;;;;1.30;1.20;;;;;;;19.63;59.84;96939.06;10391489;28;20058;-47
2023/05/23 23:30:48;;;;;;;1.52;1.27;;;;;;;19.62;59.85;96944.78;10407003;28;20046;-48
2023/05/23 23:36:08;;;;;;;1.20;1.10;;;;;;;19.63;59.85;96957.19;10390076;28;20042;-47
2023/05/23 23:41:27;;;;;;;1.50;1.17;;;;;;;19.63;59.81;96958.00;10389797;28;20038;-47
2023/05/23 23:46:47;;;;;;;1.52;1.10;;;;;;;19.63;59.91;96957.19;10392651;28;20053;-47
2023/05/23 23:52:07;;;;;;;1.48;0.90;;;;;;;19.62;59.88;96953.72;10387904;28;20058;-46
2023/05/23 23:57:27;;;;;;;1.90;1.00;;;;;;;19.63;59.79;96965.31;10403261;28;20037;-47
